Time;durP1;ratioP1;P1;durP2;ratioP2;P2;SDS_P1;SDS_P2;PMS_P1;PMS_P2;Temp;Humidity;BMP_temperature;BMP_pressure;BME280_temperature;BME280_humidity;BME280_pressure;Samples;Min_cycle;Max_cycle;Signal;HPM_P1;HPM_P2
2022/05/02 00:01:12;;;;;;;8.20;2.38;;;;;;;;;;5079660;28;20055;-74
2022/05/02 00:03:42;;;;;;;8.10;1.70;;;;;;;;;;5079070;28;20052;-74
2022/05/02 00:06:12;;;;;;;24.25;2.13;;;;;;;;;;5079651;28;20526;-74
2022/05/02 00:08:42;;;;;;;8.90;1.92;;;;;;;;;;5078534;28;20039;-74
2022/05/02 00:11:13;;;;;;;11.82;3.75;;;;;;;;;;5074782;28;20053;-73
2022/05/02 00:13:42;;;;;;;11.17;3.60;;;;;;;;;;5069059;28;20044;-73
2022/05/02 00:16:13;;;;;;;5.22;1.88;;;;;;;;;;5074053;28;20056;-73
2022/05/02 00:18:44;;;;;;;11.85;1.73;;;;;;;;;;5069794;28;20526;-73
2022/05/02 00:21:14;;;;;;;9.40;1.75;;;;;;;;;;5068883;28;20063;-74
2022/05/02 00:23:44;;;;;;;10.50;1.67;;;;;;;;;;5068657;28;20044;-75
2022/05/02 00:26:14;;;;;;;5.90;1.70;;;;;;;;;;5068085;28;20516;-73
2022/05/02 00:28:44;;;;;;;15.23;2.45;;;;;;;;;;5072700;28;20040;-73
2022/05/02 00:31:14;;;;;;;11.75;2.03;;;;;;;;;;5080070;28;20051;-74
2022/05/02 00:33:44;;;;;;;6.07;1.88;;;;;;;;;;5088658;28;20044;-74
2022/05/02 00:36:15;;;;;;;12.98;1.60;;;;;;;;;;5089109;28;20048;-74
2022/05/02 00:38:46;;;;;;;29.70;4.00;;;;;;;;;;5088947;28;20054;-74
2022/05/02 00:41:18;;;;;;;13.80;7.15;;;;;;;;;;5078333;28;20040;-73
2022/05/02 00:43:49;;;;;;;12.52;7.78;;;;;;;;;;5074500;28;20045;-75
2022/05/02 00:46:19;;;;;;;13.75;3.83;;;;;;;;;;5066846;28;20483;-74
2022/05/02 00:48:50;;;;;;;15.50;4.97;;;;;;;;;;5066494;28;20399;-74
2022/05/02 00:51:21;;;;;;;10.15;2.70;;;;;;;;;;5068423;28;20048;-75
2022/05/02 00:53:53;;;;;;;15.50;1.95;;;;;;;;;;5068230;28;20155;-74
2022/05/02 00:56:24;;;;;;;8.65;1.77;;;;;;;;;;5068331;28;20388;-75
2022/05/02 00:58:54;;;;;;;6.93;1.63;;;;;;;;;;5066398;28;20052;-74
2022/05/02 01:01:24;;;;;;;8.30;1.73;;;;;;;;;;5067360;28;20388;-75
2022/05/02 01:03:55;;;;;;;8.70;1.40;;;;;;;;;;5067427;28;20387;-75
2022/05/02 01:09:14;;;;;;;3.80;1.65;;;;;;;;;;5067827;28;20064;-74
2022/05/02 01:11:44;;;;;;;4.35;1.17;;;;;;;;;;5068665;28;20044;-73
2022/05/02 01:14:14;;;;;;;5.68;1.08;;;;;;;;;;5067548;28;20559;-72
2022/05/02 01:16:44;;;;;;;13.50;1.85;;;;;;;;;;5067276;28;20391;-73
2022/05/02 01:19:14;;;;;;;12.15;1.70;;;;;;;;;;5067547;28;20049;-73
2022/05/02 01:21:45;;;;;;;12.85;1.52;;;;;;;;;;5067419;28;20052;-72
2022/05/02 01:24:14;;;;;;;9.68;1.52;;;;;;;;;;5067179;28;20415;-72
2022/05/02 01:26:44;;;;;;;9.35;1.80;;;;;;;;;;5067706;28;20321;-73
2022/05/02 01:29:15;;;;;;;10.68;2.00;;;;;;;;;;5067321;28;20048;-73
2022/05/02 01:31:46;;;;;;;12.55;2.35;;;;;;;;;;5067623;28;20044;-74
2022/05/02 01:34:15;;;;;;;10.90;2.00;;;;;;;;;;5067585;28;20052;-74
2022/05/02 01:36:45;;;;;;;10.68;3.05;;;;;;;;;;5067301;28;20052;-74
2022/05/02 01:39:16;;;;;;;10.57;2.55;;;;;;;;;;5067688;28;20059;-72
2022/05/02 01:41:46;;;;;;;3.35;2.20;;;;;;;;;;5067122;28;20585;-72
2022/05/02 01:44:16;;;;;;;19.02;2.38;;;;;;;;;;5066813;28;20045;-72
2022/05/02 01:46:46;;;;;;;7.00;2.00;;;;;;;;;;5066444;28;20058;-73
2022/05/02 01:49:16;;;;;;;15.38;2.10;;;;;;;;;;5067490;28;20483;-74
2022/05/02 01:51:47;;;;;;;17.40;2.33;;;;;;;;;;5066202;28;20052;-73
2022/05/02 01:54:22;;;;;;;8.82;1.65;;;;;;;;;;5067317;28;20071;-72
2022/05/02 01:56:52;;;;;;;7.78;1.58;;;;;;;;;;5066896;28;20059;-73
2022/05/02 01:59:23;;;;;;;9.40;1.40;;;;;;;;;;5067069;28;20037;-72
2022/05/02 02:01:53;;;;;;;8.03;1.43;;;;;;;;;;5066410;28;20059;-72
2022/05/02 02:07:14;;;;;;;8.38;1.50;;;;;;;;;;5067447;28;20045;-73
2022/05/02 02:09:44;;;;;;;17.08;1.70;;;;;;;;;;5067012;28;20052;-72
2022/05/02 02:12:14;;;;;;;5.65;1.02;;;;;;;;;;5066420;28;20055;-74
2022/05/02 02:14:47;;;;;;;6.50;1.58;;;;;;;;;;5066723;28;20040;-75
2022/05/02 02:17:18;;;;;;;11.10;1.48;;;;;;;;;;5065747;28;20047;-73
2022/05/02 02:19:48;;;;;;;12.13;1.35;;;;;;;;;;5066208;28;20055;-73
2022/05/02 02:22:19;;;;;;;5.32;1.10;;;;;;;;;;5066729;28;20041;-72
2022/05/02 02:24:49;;;;;;;12.90;1.52;;;;;;;;;;5067659;28;20414;-72
2022/05/02 02:27:20;;;;;;;15.27;1.63;;;;;;;;;;5066834;28;20067;-74
2022/05/02 02:29:50;;;;;;;12.57;1.15;;;;;;;;;;5067383;28;20075;-73
2022/05/02 02:32:20;;;;;;;9.30;1.23;;;;;;;;;;5066955;28;20056;-74
2022/05/02 02:34:50;;;;;;;9.43;1.15;;;;;;;;;;5066445;28;20055;-72
2022/05/02 02:37:20;;;;;;;7.75;1.25;;;;;;;;;;5067185;28;20499;-74
2022/05/02 02:39:50;;;;;;;13.80;1.50;;;;;;;;;;5066607;28;20491;-74
2022/05/02 02:42:22;;;;;;;12.68;1.42;;;;;;;;;;5066067;28;20476;-73
2022/05/02 02:44:53;;;;;;;7.28;1.02;;;;;;;;;;5066872;28;20048;-74
2022/05/02 02:47:23;;;;;;;9.00;1.90;;;;;;;;;;5066814;28;20040;-73
2022/05/02 02:49:53;;;;;;;12.63;1.73;;;;;;;;;;5066684;28;20458;-73
2022/05/02 02:52:23;;;;;;;12.65;1.35;;;;;;;;;;5065574;28;20056;-73
2022/05/02 02:54:53;;;;;;;15.57;1.92;;;;;;;;;;5065953;28;20051;-72
2022/05/02 02:57:23;;;;;;;14.32;1.55;;;;;;;;;;5066758;28;20036;-74
2022/05/02 02:59:52;;;;;;;11.23;1.30;;;;;;;;;;5066807;28;20499;-74
2022/05/02 03:02:23;;;;;;;10.63;1.83;;;;;;;;;;5066094;28;20056;-73
2022/05/02 03:07:42;;;;;;;8.43;1.42;;;;;;;;;;5065970;28;20049;-74
2022/05/02 03:10:12;;;;;;;11.05;1.60;;;;;;;;;;5069827;28;20067;-74
2022/05/02 03:12:42;;;;;;;12.57;1.27;;;;;;;;;;5070265;28;20085;-74
2022/05/02 03:15:12;;;;;;;8.38;1.20;;;;;;;;;;5069978;28;20056;-74
2022/05/02 03:17:42;;;;;;;19.83;2.08;;;;;;;;;;5069833;28;20426;-73
2022/05/02 03:20:12;;;;;;;14.35;1.25;;;;;;;;;;5070293;28;20495;-74
2022/05/02 03:22:42;;;;;;;6.93;1.20;;;;;;;;;;5070707;28;20059;-72
2022/05/02 03:25:12;;;;;;;10.73;1.30;;;;;;;;;;5070184;28;20057;-74
2022/05/02 03:27:42;;;;;;;10.32;1.30;;;;;;;;;;5069242;28;20427;-72
2022/05/02 03:30:12;;;;;;;13.13;1.35;;;;;;;;;;5069474;28;20063;-73
2022/05/02 03:32:42;;;;;;;8.27;1.20;;;;;;;;;;5070070;28;20490;-72
2022/05/02 03:35:13;;;;;;;9.88;1.48;;;;;;;;;;5070229;28;20055;-73
2022/05/02 03:37:43;;;;;;;10.88;1.15;;;;;;;;;;5070270;28;20063;-73
2022/05/02 03:40:12;;;;;;;13.20;1.60;;;;;;;;;;5069280;28;20051;-74
2022/05/02 03:42:43;;;;;;;15.35;1.27;;;;;;;;;;5068543;28;20048;-73
2022/05/02 03:45:13;;;;;;;11.88;1.40;;;;;;;;;;5069688;28;20043;-73
2022/05/02 03:47:43;;;;;;;11.05;1.23;;;;;;;;;;5070453;28;20048;-74
2022/05/02 03:50:13;;;;;;;8.00;1.05;;;;;;;;;;5069280;28;20510;-73
2022/05/02 03:52:43;;;;;;;20.70;1.73;;;;;;;;;;5069334;28;20067;-74
2022/05/02 03:55:13;;;;;;;12.77;1.02;;;;;;;;;;5069449;28;20502;-73
2022/05/02 03:57:43;;;;;;;22.92;1.50;;;;;;;;;;5069509;28;20048;-73
2022/05/02 04:00:14;;;;;;;11.65;1.30;;;;;;;;;;5069329;28;20051;-73
2022/05/02 04:02:51;;;;;;;16.60;1.30;;;;;;;;;;5069333;28;20056;-73
2022/05/02 04:05:21;;;;;;;9.00;1.17;;;;;;;;;;5069296;28;20064;-74
2022/05/02 04:07:52;;;;;;;17.08;1.23;;;;;;;;;;5069149;28;20286;-73
2022/05/02 04:10:22;;;;;;;12.98;1.45;;;;;;;;;;5069612;28;20049;-74
2022/05/02 04:12:52;;;;;;;14.50;1.60;;;;;;;;;;5069080;28;20045;-74
2022/05/02 04:15:22;;;;;;;21.13;1.17;;;;;;;;;;5068513;28;20441;-75
2022/05/02 04:17:52;;;;;;;12.20;1.40;;;;;;;;;;5068868;28;20053;-72
2022/05/02 04:20:22;;;;;;;5.68;1.15;;;;;;;;;;5068934;28;20048;-72
2022/05/02 04:22:52;;;;;;;14.55;1.35;;;;;;;;;;5068859;28;20052;-74
2022/05/02 04:25:22;;;;;;;12.00;1.52;;;;;;;;;;5068851;28;20442;-75
2022/05/02 04:27:52;;;;;;;6.53;1.02;;;;;;;;;;5068973;28;20427;-73
2022/05/02 04:30:21;;;;;;;7.30;1.30;;;;;;;;;;5068021;28;20067;-73
2022/05/02 04:32:52;;;;;;;4.53;0.90;;;;;;;;;;5068307;28;20063;-74
2022/05/02 04:35:22;;;;;;;11.48;1.80;;;;;;;;;;5068914;28;20789;-75
2022/05/02 04:37:52;;;;;;;12.13;1.60;;;;;;;;;;5068621;28;20049;-73
2022/05/02 04:40:21;;;;;;;10.48;1.48;;;;;;;;;;5069584;28;20495;-74
2022/05/02 04:42:51;;;;;;;14.30;1.30;;;;;;;;;;5066751;28;20083;-74
2022/05/02 04:45:21;;;;;;;9.95;1.27;;;;;;;;;;5068533;28;20059;-74
2022/05/02 04:47:51;;;;;;;14.38;1.35;;;;;;;;;;5068361;28;20056;-73
2022/05/02 04:50:21;;;;;;;11.02;1.30;;;;;;;;;;5069292;28;20052;-73
2022/05/02 04:52:51;;;;;;;16.30;1.40;;;;;;;;;;5068831;28;20048;-74
2022/05/02 04:55:21;;;;;;;14.88;1.52;;;;;;;;;;5068230;28;20041;-73
2022/05/02 04:57:50;;;;;;;8.30;1.02;;;;;;;;;;5068517;28;20036;-74
2022/05/02 05:00:20;;;;;;;7.93;1.10;;;;;;;;;;5068582;28;20048;-73
2022/05/02 05:02:50;;;;;;;11.90;1.10;;;;;;;;;;5067743;28;20055;-75
2022/05/02 05:05:27;;;;;;;14.80;1.10;;;;;;;;;;5068427;28;20048;-73
2022/05/02 05:07:57;;;;;;;12.40;1.15;;;;;;;;;;5068553;28;20055;-74
2022/05/02 05:10:27;;;;;;;6.93;1.27;;;;;;;;;;5068279;28;20051;-72
2022/05/02 05:13:07;;;;;;;9.52;1.15;;;;;;;;;;5068207;28;20071;-74
2022/05/02 05:18:49;;;;;;;6.93;1.20;;;;;;;;;;5067450;28;20632;-75
2022/05/02 05:21:44;;;;;;;9.50;1.13;;;;;;;;;;5068017;28;20055;-73
2022/05/02 05:24:31;;;;;;;15.07;1.35;;;;;;;;;;5067695;28;20040;-73
2022/05/02 05:27:26;;;;;;;12.68;1.30;;;;;;;;;;5067580;28;20056;-73
2022/05/02 05:30:08;;;;;;;7.43;1.52;;;;;;;;;;5068002;28;20040;-74
2022/05/02 05:33:03;;;;;;;10.57;1.60;;;;;;;;;;5066993;28;20048;-73
2022/05/02 05:35:42;;;;;;;6.57;1.15;;;;;;;;;;5067766;28;20036;-75
2022/05/02 05:38:23;;;;;;;9.07;1.10;;;;;;;;;;5068769;28;20053;-73
2022/05/02 05:41:17;;;;;;;8.60;1.35;;;;;;;;;;5066494;28;20044;-74
2022/05/02 05:44:09;;;;;;;8.85;1.40;;;;;;;;;;5065759;28;20057;-74
2022/05/02 05:46:54;;;;;;;6.45;1.00;;;;;;;;;;5066438;28;20051;-73
2022/05/02 05:49:44;;;;;;;13.45;1.08;;;;;;;;;;5066994;28;20044;-74
2022/05/02 05:52:33;;;;;;;7.70;0.95;;;;;;;;;;5067085;28;20045;-75
2022/05/02 05:55:11;;;;;;;7.90;1.27;;;;;;;;;;5067033;28;20048;-72
2022/05/02 05:57:59;;;;;;;15.70;1.30;;;;;;;;;;5067384;28;20044;-74
2022/05/02 06:00:33;;;;;;;11.50;1.27;;;;;;;;;;5067575;28;20040;-74
2022/05/02 06:03:15;;;;;;;8.48;1.30;;;;;;;;;;5067981;28;20453;-74
2022/05/02 06:05:47;;;;;;;8.02;1.13;;;;;;;;;;5067242;28;20060;-71
2022/05/02 06:08:21;;;;;;;9.15;1.25;;;;;;;;;;5066911;28;20589;-73
2022/05/02 06:10:52;;;;;;;16.38;1.85;;;;;;;;;;5066837;28;20499;-73
2022/05/02 06:13:25;;;;;;;10.20;1.17;;;;;;;;;;5066992;28;20040;-74
2022/05/02 06:19:43;;;;;;;9.02;1.77;;;;;;;;;;5066554;28;20534;-72
2022/05/02 06:22:16;;;;;;;4.15;0.90;;;;;;;;;;5000809;28;20065;-75
2022/05/02 06:24:48;;;;;;;7.10;1.02;;;;;;;;;;5054513;28;20087;-74
2022/05/02 06:27:19;;;;;;;10.80;0.98;;;;;;;;;;5063470;28;20053;-74
2022/05/02 06:29:51;;;;;;;11.57;1.27;;;;;;;;;;5066969;28;20522;-74
2022/05/02 06:32:23;;;;;;;11.05;1.10;;;;;;;;;;5067022;28;20613;-72
2022/05/02 06:34:53;;;;;;;7.88;1.30;;;;;;;;;;5066403;28;20050;-74
2022/05/02 06:37:42;;;;;;;6.88;1.45;;;;;;;;;;5066134;28;20051;-75
2022/05/02 06:40:20;;;;;;;9.07;1.15;;;;;;;;;;5066379;28;20047;-72
2022/05/02 06:43:16;;;;;;;12.68;1.10;;;;;;;;;;5066032;28;20059;-74
2022/05/02 06:45:51;;;;;;;9.25;1.02;;;;;;;;;;5066216;28;20041;-75
2022/05/02 06:48:31;;;;;;;5.88;1.00;;;;;;;;;;5066718;28;20404;-73
2022/05/02 06:51:10;;;;;;;5.63;1.00;;;;;;;;;;5066982;28;20045;-73
2022/05/02 06:53:43;;;;;;;5.22;1.13;;;;;;;;;;5065317;28;20045;-74
2022/05/02 06:56:42;;;;;;;16.02;1.23;;;;;;;;;;5065940;28;20048;-75
2022/05/02 06:59:39;;;;;;;8.80;1.30;;;;;;;;;;5064453;28;20048;-73
2022/05/02 07:02:12;;;;;;;10.25;1.40;;;;;;;;;;5066376;28;20507;-73
2022/05/02 07:04:53;;;;;;;6.50;1.00;;;;;;;;;;5066578;28;20055;-75
2022/05/02 07:07:44;;;;;;;55.83;3.88;;;;;;;;;;5067116;28;20044;-75
2022/05/02 07:10:22;;;;;;;24.30;1.30;;;;;;;;;;5066055;28;20041;-76
2022/05/02 07:13:03;;;;;;;12.45;1.45;;;;;;;;;;5064064;28;20789;-75
2022/05/02 07:16:02;;;;;;;10.25;1.15;;;;;;;;;;5064750;28;20550;-74
2022/05/02 07:19:08;;;;;;;12.18;1.60;;;;;;;;;;5065920;28;20045;-75
2022/05/02 07:21:43;;;;;;;11.00;2.00;;;;;;;;;;5066057;28;20052;-74
2022/05/02 07:24:20;;;;;;;5.75;1.02;;;;;;;;;;5066299;28;20055;-73
2022/05/02 07:27:26;;;;;;;11.35;1.05;;;;;;;;;;5064499;28;20059;-74
2022/05/02 07:30:00;;;;;;;5.68;0.82;;;;;;;;;;5065712;28;20040;-75
2022/05/02 07:32:33;;;;;;;6.22;0.80;;;;;;;;;;5065940;28;20155;-73
2022/05/02 07:35:04;;;;;;;9.55;0.93;;;;;;;;;;5066642;28;20067;-72
2022/05/02 07:37:36;;;;;;;11.52;1.70;;;;;;;;;;5065872;28;20053;-72
2022/05/02 07:40:10;;;;;;;12.80;0.93;;;;;;;;;;5064597;28;20415;-74
2022/05/02 07:42:42;;;;;;;13.68;1.20;;;;;;;;;;5066071;28;20041;-75
2022/05/02 07:45:17;;;;;;;4.13;0.75;;;;;;;;;;5065285;28;20052;-73
2022/05/02 07:47:48;;;;;;;4.50;1.00;;;;;;;;;;5066197;28;20048;-75
2022/05/02 07:50:21;;;;;;;6.73;1.00;;;;;;;;;;5065469;28;20052;-76
2022/05/02 07:52:52;;;;;;;8.82;1.00;;;;;;;;;;5066194;28;20040;-72
2022/05/02 07:55:24;;;;;;;9.77;1.00;;;;;;;;;;5067836;28;20499;-73
2022/05/02 07:57:57;;;;;;;4.50;0.68;;;;;;;;;;5069595;28;20399;-72
2022/05/02 08:00:27;;;;;;;8.10;0.93;;;;;;;;;;5069728;28;20036;-72
2022/05/02 08:02:57;;;;;;;10.20;1.25;;;;;;;;;;5069916;28;20487;-73
2022/05/02 08:05:28;;;;;;;17.95;1.42;;;;;;;;;;5069284;28;20059;-73
2022/05/02 08:08:15;;;;;;;5.70;1.30;;;;;;;;;;5067919;28;20064;-75
2022/05/02 08:10:55;;;;;;;10.05;1.02;;;;;;;;;;5068184;28;20040;-73
2022/05/02 08:13:42;;;;;;;7.35;1.42;;;;;;;;;;5069165;28;20052;-73
2022/05/02 08:16:24;;;;;;;10.40;1.48;;;;;;;;;;5069665;28;20052;-73
2022/05/02 08:18:56;;;;;;;;;;;;;;;;;;5069918;28;20044;-75
2022/05/02 08:27:15;;;;;;;4.60;0.90;;;;;;;;;;5066737;28;19924;-74
2022/05/02 08:28:36;;;;;;;15.65;1.23;;;;;;;;;;5044068;28;20060;-73
2022/05/02 08:31:17;;;;;;;10.27;1.05;;;;;;;;;;5067857;28;20130;-72
2022/05/02 08:33:59;;;;;;;9.07;1.10;;;;;;;;;;5068553;28;20040;-73
2022/05/02 08:37:15;;;;;;;7.05;1.05;;;;;;;;;;5068885;28;20041;-74
2022/05/02 08:39:57;;;;;;;10.88;1.08;;;;;;;;;;5047826;28;20506;-76
2022/05/02 08:42:39;;;;;;;17.05;1.23;;;;;;;;;;5066921;28;20052;-74
2022/05/02 08:45:51;;;;;;;10.02;1.30;;;;;;;;;;5068100;28;20504;-72
2022/05/02 08:48:36;;;;;;;3.50;0.90;;;;;;;;;;5068416;28;20071;-73
2022/05/02 08:51:23;;;;;;;3.03;0.70;;;;;;;;;;5068616;28;20403;-72
2022/05/02 08:54:25;;;;;;;7.70;1.05;;;;;;;;;;5067448;28;20055;-73
2022/05/02 08:56:59;;;;;;;10.38;1.10;;;;;;;;;;5068581;28;20399;-74
2022/05/02 08:59:38;;;;;;;5.80;1.20;;;;;;;;;;5068378;28;20442;-72
2022/05/02 09:02:08;;;;;;;6.03;0.88;;;;;;;;;;5068490;28;20099;-75
2022/05/02 09:05:01;;;;;;;4.00;0.90;;;;;;;;;;5068866;28;20045;-73
2022/05/02 09:07:34;;;;;;;10.75;1.45;;;;;;;;;;5039089;28;20510;-74
2022/05/02 09:10:11;;;;;;;10.85;1.17;;;;;;;;;;5068364;28;20048;-74
2022/05/02 09:12:59;;;;;;;12.63;1.40;;;;;;;;;;5067880;28;20055;-72
2022/05/02 09:15:54;;;;;;;8.98;1.00;;;;;;;;;;5068221;28;20036;-74
2022/05/02 09:18:50;;;;;;;11.25;1.30;;;;;;;;;;5068183;28;20040;-74
2022/05/02 09:21:28;;;;;;;6.88;1.30;;;;;;;;;;5067998;28;20048;-73
2022/05/02 09:24:24;;;;;;;11.52;1.10;;;;;;;;;;5067813;28;20408;-74
2022/05/02 09:27:33;;;;;;;11.88;1.33;;;;;;;;;;5068085;28;20059;-74
2022/05/02 09:30:04;;;;;;;22.58;2.13;;;;;;;;;;5060697;28;20542;-72
2022/05/02 09:32:57;;;;;;;14.48;1.63;;;;;;;;;;5067911;28;20059;-72
2022/05/02 09:35:36;;;;;;;16.73;1.83;;;;;;;;;;5060462;28;20515;-72
2022/05/02 09:38:25;;;;;;;13.88;1.60;;;;;;;;;;5067497;28;20048;-73
2022/05/02 09:41:17;;;;;;;4.95;1.00;;;;;;;;;;5065422;28;20060;-74
2022/05/02 09:50:16;;;;;;;10.73;1.17;;;;;;;;;;5067739;28;20045;-74
2022/05/02 09:53:17;;;;;;;5.38;0.98;;;;;;;;;;5067260;28;20044;-73
2022/05/02 09:59:07;;;;;;;7.35;1.05;;;;;;;;;;5066653;28;20053;-74
2022/05/02 10:01:46;;;;;;;16.85;1.55;;;;;;;;;;5066008;28;20044;-72
2022/05/02 10:04:26;;;;;;;8.25;1.25;;;;;;;;;;5066406;28;20392;-74
2022/05/02 10:06:58;;;;;;;18.10;1.88;;;;;;;;;;5066470;28;20522;-74
2022/05/02 10:09:43;;;;;;;18.23;1.98;;;;;;;;;;5066683;28;20044;-73
2022/05/02 10:12:31;;;;;;;12.25;1.42;;;;;;;;;;5066539;28;21077;-74
2022/05/02 10:15:10;;;;;;;18.20;1.50;;;;;;;;;;5066993;28;20051;-73
2022/05/02 10:18:09;;;;;;;13.55;2.35;;;;;;;;;;5066344;28;20064;-74
2022/05/02 10:20:46;;;;;;;11.52;1.80;;;;;;;;;;5066953;28;20044;-73
2022/05/02 10:23:34;;;;;;;25.35;2.10;;;;;;;;;;5066900;28;20039;-74
2022/05/02 10:26:31;;;;;;;8.15;1.70;;;;;;;;;;5066797;28;20056;-74
2022/05/02 10:29:20;;;;;;;8.45;1.63;;;;;;;;;;5065133;28;20045;-75
2022/05/02 10:32:01;;;;;;;10.90;1.83;;;;;;;;;;5066704;28;20395;-75
2022/05/02 10:34:33;;;;;;;13.03;1.53;;;;;;;;;;5065397;28;20051;-74
2022/05/02 10:37:07;;;;;;;8.77;1.95;;;;;;;;;;5065746;28;20044;-73
2022/05/02 10:39:50;;;;;;;7.25;2.10;;;;;;;;;;5064684;28;20044;-75
2022/05/02 10:42:27;;;;;;;10.95;1.40;;;;;;;;;;5065169;28;20061;-75
2022/05/02 10:45:06;;;;;;;;;;;;;;;;;;5066287;28;20503;-75
2022/05/02 10:47:54;;;;;;;7.45;1.45;;;;;;;;;;5066823;28;19920;-73
2022/05/02 10:50:31;;;;;;;11.07;1.48;;;;;;;;;;5066872;28;20053;-74
2022/05/02 10:53:24;;;;;;;8.00;1.30;;;;;;;;;;5066248;28;20056;-75
2022/05/02 10:56:05;;;;;;;;;;;;;;;;;;5066352;28;20036;-75
2022/05/02 10:58:35;;;;;;;7.90;1.50;;;;;;;;;;5066330;28;19932;-75
2022/05/02 11:01:08;;;;;;;12.05;1.35;;;;;;;;;;5066139;28;20052;-75
2022/05/02 11:03:46;;;;;;;10.52;1.65;;;;;;;;;;5064528;28;20048;-74
2022/05/02 11:06:35;;;;;;;13.45;2.42;;;;;;;;;;5065896;28;20048;-74
2022/05/02 11:09:08;;;;;;;7.55;1.60;;;;;;;;;;5066404;28;20048;-75
2022/05/02 11:11:48;;;;;;;12.60;2.05;;;;;;;;;;5064734;28;20416;-76
2022/05/02 11:14:51;;;;;;;17.88;1.77;;;;;;;;;;5066615;28;20045;-75
2022/05/02 11:18:07;;;;;;;8.50;1.52;;;;;;;;;;5065709;28;20408;-73
2022/05/02 11:20:47;;;;;;;16.65;1.67;;;;;;;;;;5066132;28;20052;-74
2022/05/02 11:23:31;;;;;;;11.10;2.20;;;;;;;;;;5066368;28;20041;-76
2022/05/02 11:26:27;;;;;;;14.80;2.15;;;;;;;;;;5066124;28;20057;-75
2022/05/02 11:29:14;;;;;;;8.60;2.28;;;;;;;;;;5065960;28;20040;-76
2022/05/02 11:32:05;;;;;;;10.02;2.28;;;;;;;;;;5069169;28;20056;-74
2022/05/02 11:34:50;;;;;;;10.40;1.67;;;;;;;;;;5069931;28;21171;-72
2022/05/02 11:38:01;;;;;;;14.77;2.45;;;;;;;;;;5069800;28;20048;-75
2022/05/02 11:40:42;;;;;;;7.63;1.90;;;;;;;;;;5007602;28;20070;-74
2022/05/02 11:43:19;;;;;;;10.60;2.00;;;;;;;;;;5067960;28;20057;-73
2022/05/02 11:46:22;;;;;;;7.68;1.88;;;;;;;;;;5068934;28;20482;-74
2022/05/02 11:49:14;;;;;;;13.30;1.63;;;;;;;;;;5069534;28;20044;-73
2022/05/02 11:51:50;;;;;;;14.50;1.67;;;;;;;;;;5069014;28;20045;-74
2022/05/02 11:54:36;;;;;;;17.15;1.88;;;;;;;;;;5069113;28;20506;-73
2022/05/02 11:57:25;;;;;;;7.47;1.70;;;;;;;;;;5069417;28;20067;-73
2022/05/02 12:00:11;;;;;;;6.15;1.50;;;;;;;;;;5069545;28;20052;-73
2022/05/02 12:02:56;;;;;;;12.18;1.90;;;;;;;;;;5069112;28;20040;-73
2022/05/02 12:05:37;;;;;;;6.40;1.50;;;;;;;;;;5068894;28;20056;-74
2022/05/02 12:08:37;;;;;;;10.60;1.92;;;;;;;;;;5068689;28;20045;-75
2022/05/02 12:11:17;;;;;;;14.60;2.67;;;;;;;;;;5063733;28;20071;-74
2022/05/02 12:13:48;;;;;;;18.42;2.30;;;;;;;;;;5068950;28;20086;-75
2022/05/02 12:16:19;;;;;;;7.80;1.80;;;;;;;;;;5069355;28;20410;-75
2022/05/02 12:18:55;;;;;;;12.32;1.52;;;;;;;;;;5068987;28;20487;-74
2022/05/02 12:21:52;;;;;;;11.65;2.00;;;;;;;;;;5067688;28;20051;-74
2022/05/02 12:24:33;;;;;;;12.20;1.98;;;;;;;;;;5067246;28;20057;-74
2022/05/02 12:27:09;;;;;;;8.93;1.77;;;;;;;;;;5069350;28;20060;-75
2022/05/02 12:29:44;;;;;;;6.85;1.42;;;;;;;;;;5068773;28;20048;-74
2022/05/02 12:32:25;;;;;;;11.90;1.55;;;;;;;;;;5068852;28;20151;-73
2022/05/02 12:34:58;;;;;;;14.43;2.03;;;;;;;;;;5069338;28;20045;-73
2022/05/02 12:37:40;;;;;;;10.10;2.15;;;;;;;;;;5068632;28;20052;-74
2022/05/02 12:40:11;;;;;;;12.55;2.20;;;;;;;;;;5068147;28;20045;-73
2022/05/02 12:42:45;;;;;;;13.18;1.48;;;;;;;;;;5067027;28;20079;-74
2022/05/02 12:45:21;;;;;;;13.07;4.07;;;;;;;;;;5068916;28;20472;-74
2022/05/02 12:47:54;;;;;;;8.35;1.30;;;;;;;;;;5068687;28;20065;-73
2022/05/02 12:50:27;;;;;;;5.50;1.40;;;;;;;;;;5066572;28;20053;-74
2022/05/02 12:53:05;;;;;;;12.52;2.33;;;;;;;;;;5067396;28;20060;-74
2022/05/02 12:55:39;;;;;;;12.65;2.10;;;;;;;;;;5068040;28;20048;-73
2022/05/02 13:01:04;;;;;;;4.45;1.27;;;;;;;;;;5067525;28;20056;-74
2022/05/02 13:03:38;;;;;;;11.02;1.60;;;;;;;;;;5068900;28;20048;-74
2022/05/02 13:06:10;;;;;;;9.25;2.30;;;;;;;;;;5068066;28;20067;-74
2022/05/02 13:08:41;;;;;;;11.43;1.98;;;;;;;;;;5068208;28;20550;-74
2022/05/02 13:11:24;;;;;;;9.70;1.70;;;;;;;;;;5066191;28;20044;-74
2022/05/02 13:13:58;;;;;;;8.68;1.90;;;;;;;;;;5067254;28;20056;-74
2022/05/02 13:16:32;;;;;;;8.13;1.70;;;;;;;;;;5067702;28;20115;-73
2022/05/02 13:19:04;;;;;;;9.73;1.77;;;;;;;;;;5067687;28;20045;-72
2022/05/02 13:21:34;;;;;;;4.72;1.33;;;;;;;;;;5067258;28;20056;-73
2022/05/02 13:24:12;;;;;;;13.10;2.03;;;;;;;;;;5067609;28;20510;-74
2022/05/02 13:27:15;;;;;;;8.68;1.70;;;;;;;;;;5068083;28;20067;-75
2022/05/02 13:29:57;;;;;;;7.63;1.75;;;;;;;;;;5044653;28;20060;-75
2022/05/02 13:32:32;;;;;;;;;;;;;;;;;;5067638;28;20519;-75
2022/05/02 13:35:14;;;;;;;9.15;2.30;;;;;;;;;;5066960;28;19931;-74
2022/05/02 13:38:01;;;;;;;7.93;1.75;;;;;;;;;;5067017;28;20515;-74
2022/05/02 13:40:56;;;;;;;9.05;1.48;;;;;;;;;;5067150;28;20052;-74
2022/05/02 13:43:52;;;;;;;7.53;1.60;;;;;;;;;;5066894;28;20047;-73
2022/05/02 13:46:45;;;;;;;10.45;1.38;;;;;;;;;;5066622;28;20055;-74
2022/05/02 13:49:41;;;;;;;15.73;1.88;;;;;;;;;;5066948;28;20471;-74
2022/05/02 13:52:29;;;;;;;7.95;1.92;;;;;;;;;;5067185;28;20706;-74
2022/05/02 13:55:29;;;;;;;7.28;2.13;;;;;;;;;;5067451;28;20044;-74
2022/05/02 13:58:21;;;;;;;10.60;1.70;;;;;;;;;;5066806;28;20044;-75
2022/05/02 14:01:32;;;;;;;7.03;1.52;;;;;;;;;;5066913;28;20380;-75
2022/05/02 14:04:17;;;;;;;11.30;1.70;;;;;;;;;;5066689;28;20040;-74
2022/05/02 14:07:01;;;;;;;12.52;1.30;;;;;;;;;;5066357;28;20407;-74
2022/05/02 14:09:39;;;;;;;5.82;1.13;;;;;;;;;;5066298;28;20518;-74
2022/05/02 14:12:24;;;;;;;13.68;1.77;;;;;;;;;;5067144;28;20041;-76
2022/05/02 14:15:12;;;;;;;8.68;1.45;;;;;;;;;;5066640;28;20637;-74
2022/05/02 14:17:45;;;;;;;16.00;1.52;;;;;;;;;;5066741;28;20033;-73
2022/05/02 14:20:28;;;;;;;7.53;1.67;;;;;;;;;;5066565;28;20044;-75
2022/05/02 14:23:04;;;;;;;8.45;1.65;;;;;;;;;;5066535;28;20048;-74
2022/05/02 14:25:43;;;;;;;10.43;1.42;;;;;;;;;;5066432;28;20044;-75
2022/05/02 14:28:15;;;;;;;8.90;1.83;;;;;;;;;;5066213;28;20051;-74
2022/05/02 14:31:06;;;;;;;13.27;1.92;;;;;;;;;;5065365;28;20514;-76
2022/05/02 14:33:41;;;;;;;6.15;1.20;;;;;;;;;;5066017;28;20135;-75
2022/05/02 14:36:14;;;;;;;;;;;;;;;;;;5066773;28;20055;-74
2022/05/02 14:38:47;;;;;;;8.35;1.63;;;;;;;;;;5066432;28;19943;-75
2022/05/02 14:41:18;;;;;;;10.13;1.48;;;;;;;;;;5066566;28;20056;-74
2022/05/02 14:43:49;;;;;;;10.82;1.35;;;;;;;;;;5066596;28;20052;-73
2022/05/02 14:46:20;;;;;;;;;;;;;;;;;;5067064;28;20356;-74
2022/05/02 14:48:53;;;;;;;8.65;1.30;;;;;;;;;;5066319;28;20291;-74
2022/05/02 14:51:29;;;;;;;11.98;1.50;;;;;;;;;;5066309;28;20495;-73
2022/05/02 14:54:02;;;;;;;11.40;1.50;;;;;;;;;;5066483;28;20522;-74
2022/05/02 14:56:39;;;;;;;14.15;1.80;;;;;;;;;;5066407;28;20491;-74
2022/05/02 14:59:11;;;;;;;9.88;1.40;;;;;;;;;;5066089;28;20499;-74
2022/05/02 15:01:42;;;;;;;4.45;1.38;;;;;;;;;;5065906;28;20056;-74
2022/05/02 15:04:21;;;;;;;10.63;1.80;;;;;;;;;;5063849;28;20053;-73
2022/05/02 15:06:53;;;;;;;10.40;1.55;;;;;;;;;;5065712;28;20064;-74
2022/05/02 15:13:01;;;;;;;9.85;1.42;;;;;;;;;;5066480;28;20047;-73
2022/05/02 15:15:53;;;;;;;6.85;1.60;;;;;;;;;;5066102;28;20051;-73
2022/05/02 15:21:53;;;;;;;7.95;1.58;;;;;;;;;;5047745;28;20068;-73
2022/05/02 15:36:46;;;;;;;7.22;1.98;;;;;;;;;;5065899;28;20059;-75
2022/05/02 15:39:27;;;;;;;9.63;1.75;;;;;;;;;;5065460;28;20036;-75
2022/05/02 15:41:59;;;;;;;18.58;2.95;;;;;;;;;;5066255;28;20130;-75
2022/05/02 15:44:35;;;;;;;12.95;1.95;;;;;;;;;;5066843;28;20048;-74
2022/05/02 15:47:14;;;;;;;14.38;2.28;;;;;;;;;;5065872;28;20067;-74
2022/05/02 15:49:46;;;;;;;11.95;2.03;;;;;;;;;;5065820;28;20072;-73
2022/05/02 15:52:20;;;;;;;16.77;2.55;;;;;;;;;;5065735;28;20499;-75
2022/05/02 15:55:10;;;;;;;15.02;2.30;;;;;;;;;;5065967;28;20156;-74
2022/05/02 15:57:47;;;;;;;12.77;2.22;;;;;;;;;;5065576;28;20048;-76
2022/05/02 16:00:28;;;;;;;12.50;2.30;;;;;;;;;;5065869;28;20059;-74
2022/05/02 16:03:05;;;;;;;15.68;2.33;;;;;;;;;;5065835;28;20619;-74
2022/05/02 16:05:38;;;;;;;9.85;1.70;;;;;;;;;;5064901;28;20049;-75
2022/05/02 16:11:04;;;;;;;6.28;1.65;;;;;;;;;;5065469;28;20041;-75
2022/05/02 16:13:47;;;;;;;9.85;1.98;;;;;;;;;;5065071;28;20052;-73
2022/05/02 16:16:22;;;;;;;14.93;2.47;;;;;;;;;;5067174;28;20534;-75
2022/05/02 16:18:53;;;;;;;13.48;2.08;;;;;;;;;;5068779;28;20051;-75
2022/05/02 16:21:26;;;;;;;9.55;1.77;;;;;;;;;;5069082;28;20388;-74
2022/05/02 16:24:00;;;;;;;7.20;1.67;;;;;;;;;;5069074;28;20063;-74
2022/05/02 16:26:30;;;;;;;11.43;2.58;;;;;;;;;;5068211;28;20103;-74
2022/05/02 16:29:14;;;;;;;17.88;2.47;;;;;;;;;;5069236;28;20055;-73
2022/05/02 16:35:31;;;;;;;6.75;1.60;;;;;;;;;;5068935;28;20056;-74
2022/05/02 16:38:02;;;;;;;9.95;2.00;;;;;;;;;;5069128;28;20044;-73